createdAt,value
2023-06-17T00:00:24.419Z,0.00
2023-06-17T00:01:24.459Z,0.00
2023-06-17T00:02:24.464Z,0.00
2023-06-17T00:03:24.490Z,0.00
2023-06-17T00:04:24.361Z,0.00
2023-06-17T00:05:24.357Z,0.00
2023-06-17T00:06:24.371Z,0.00
2023-06-17T00:07:24.365Z,0.00
2023-06-17T00:08:24.327Z,0.00
2023-06-17T00:09:24.315Z,0.00
2023-06-17T00:10:24.302Z,0.00
2023-06-17T00:11:24.363Z,0.00
2023-06-17T00:12:24.303Z,0.00
2023-06-17T00:13:24.267Z,0.00
2023-06-17T00:14:24.284Z,0.00
2023-06-17T00:15:24.269Z,0.00
2023-06-17T00:16:24.244Z,0.00
2023-06-17T00:17:24.255Z,0.00
2023-06-17T00:18:24.222Z,0.00
2023-06-17T00:19:24.204Z,0.00
2023-06-17T00:20:24.433Z,0.00
2023-06-17T00:21:24.181Z,0.00
2023-06-17T00:22:24.181Z,0.00
2023-06-17T00:23:24.145Z,0.00
2023-06-17T00:24:24.216Z,0.00
2023-06-17T00:25:24.138Z,0.00
2023-06-17T00:26:24.117Z,0.00
2023-06-17T00:27:24.129Z,0.00
2023-06-17T00:28:24.104Z,0.00
2023-06-17T00:29:24.098Z,0.00
2023-06-17T00:30:24.158Z,0.00
2023-06-17T00:31:24.065Z,0.00
2023-06-17T00:32:24.102Z,0.00
2023-06-17T00:33:24.046Z,0.00
2023-06-17T00:34:24.036Z,0.00
2023-06-17T00:35:24.012Z,0.00
2023-06-17T00:36:24.021Z,0.00
2023-06-17T00:37:24.010Z,0.00
2023-06-17T00:38:24.023Z,0.00
2023-06-17T00:39:23.989Z,0.00
2023-06-17T00:40:23.957Z,0.00
2023-06-17T00:41:23.980Z,0.00
2023-06-17T00:42:23.956Z,0.00
2023-06-17T00:43:23.949Z,0.00
2023-06-17T00:44:23.918Z,0.00
2023-06-17T00:45:23.909Z,0.00
2023-06-17T00:46:23.957Z,0.00
2023-06-17T00:47:23.905Z,0.00
2023-06-17T00:48:23.877Z,0.00
2023-06-17T00:49:23.874Z,0.00
2023-06-17T00:50:24.002Z,0.00
2023-06-17T00:51:23.833Z,0.00
2023-06-17T00:52:40.400Z,0.00
2023-06-17T00:53:23.820Z,0.00
2023-06-17T00:54:23.804Z,0.00
2023-06-17T00:55:23.804Z,0.00
2023-06-17T00:56:23.802Z,0.00
2023-06-17T00:57:23.789Z,0.00
2023-06-17T00:58:23.819Z,0.00
2023-06-17T00:59:23.757Z,0.00
2023-06-17T01:00:24.002Z,0.00
2023-06-17T01:01:23.750Z,0.00
2023-06-17T01:02:23.739Z,0.00
2023-06-17T01:03:23.804Z,0.00
2023-06-17T01:04:23.690Z,0.00
2023-06-17T01:05:23.712Z,0.00
2023-06-17T01:06:23.674Z,0.00
2023-06-17T01:07:23.679Z,0.00
2023-06-17T01:08:23.663Z,0.00
2023-06-17T01:09:23.626Z,0.00
2023-06-17T01:10:23.792Z,0.00
2023-06-17T01:11:23.622Z,0.00
2023-06-17T01:12:23.642Z,0.00
2023-06-17T01:13:23.621Z,0.00
2023-06-17T01:14:23.589Z,0.00
2023-06-17T01:15:23.571Z,0.00
2023-06-17T01:16:23.603Z,0.00
2023-06-17T01:17:23.562Z,0.00
2023-06-17T01:18:23.554Z,0.00
2023-06-17T01:19:23.532Z,0.00
2023-06-17T01:20:23.835Z,0.00
2023-06-17T01:21:23.505Z,0.00
2023-06-17T01:22:23.523Z,0.00
2023-06-17T01:23:23.569Z,0.00
2023-06-17T01:24:23.483Z,0.00
2023-06-17T01:25:23.452Z,0.00
2023-06-17T01:26:23.463Z,0.00
2023-06-17T01:27:23.448Z,0.00
2023-06-17T01:28:23.457Z,0.00
2023-06-17T01:29:23.409Z,0.00
2023-06-17T01:30:23.586Z,0.00
2023-06-17T01:31:23.410Z,0.00
2023-06-17T01:32:23.414Z,0.00
2023-06-17T01:33:23.381Z,0.00
2023-06-17T01:34:23.345Z,0.00
2023-06-17T01:35:23.343Z,0.00
2023-06-17T01:36:23.339Z,0.00
2023-06-17T01:37:23.310Z,0.00
2023-06-17T01:38:23.328Z,0.00
2023-06-17T01:39:23.302Z,0.00
2023-06-17T01:40:23.545Z,0.00
2023-06-17T01:41:23.276Z,0.00
2023-06-17T01:42:23.251Z,0.00
2023-06-17T01:43:23.268Z,0.00
2023-06-17T01:44:23.239Z,0.00
2023-06-17T01:45:23.247Z,0.00
2023-06-17T01:46:23.277Z,0.00
2023-06-17T01:47:23.254Z,0.00
2023-06-17T01:48:23.207Z,0.00
2023-06-17T01:49:23.186Z,0.00
2023-06-17T01:50:23.451Z,0.00
2023-06-17T01:51:23.272Z,0.00
2023-06-17T01:52:23.145Z,0.00
2023-06-17T01:53:23.168Z,0.00
2023-06-17T01:54:23.139Z,0.00
2023-06-17T01:55:23.154Z,0.00
2023-06-17T01:56:23.103Z,0.00
2023-06-17T01:57:23.103Z,0.00
2023-06-17T01:58:23.115Z,0.00
2023-06-17T01:59:23.100Z,0.00
2023-06-17T02:00:23.266Z,0.00
2023-06-17T02:01:23.055Z,0.00
2023-06-17T02:02:23.066Z,0.00
2023-06-17T02:03:23.202Z,0.00
2023-06-17T02:04:23.048Z,0.00
2023-06-17T02:05:23.018Z,0.00
2023-06-17T02:06:23.012Z,0.00
2023-06-17T02:07:22.986Z,0.00
2023-06-17T02:08:23.009Z,0.00
2023-06-17T02:09:22.973Z,0.00
2023-06-17T02:10:23.135Z,0.00
2023-06-17T02:11:22.938Z,0.00
2023-06-17T02:12:22.934Z,0.00
2023-06-17T02:13:22.942Z,0.00
2023-06-17T02:14:22.909Z,0.00
2023-06-17T02:15:22.900Z,0.00
2023-06-17T02:16:22.922Z,4.00
2023-06-17T02:17:22.884Z,4.00
2023-06-17T02:18:22.875Z,4.00
2023-06-17T02:19:22.844Z,4.00
2023-06-17T02:20:23.024Z,0.00
2023-06-17T02:21:22.838Z,0.00
2023-06-17T02:22:22.923Z,4.00
2023-06-17T02:23:22.833Z,4.00
2023-06-17T02:24:22.828Z,4.00
2023-06-17T02:25:22.799Z,0.00
2023-06-17T02:26:22.776Z,4.00
2023-06-17T02:27:22.850Z,4.00
2023-06-17T02:28:22.787Z,4.00
2023-06-17T02:29:22.746Z,8.00
2023-06-17T02:30:23.011Z,4.00
2023-06-17T02:31:22.791Z,8.00
2023-06-17T02:32:22.709Z,8.00
2023-06-17T02:33:22.720Z,8.00
2023-06-17T02:34:22.699Z,8.00
2023-06-17T02:35:22.700Z,8.00
2023-06-17T02:36:22.687Z,12.00
2023-06-17T02:37:22.688Z,8.00
2023-06-17T02:38:22.677Z,12.00
2023-06-17T02:39:22.650Z,12.00
2023-06-17T02:40:22.918Z,16.00
2023-06-17T02:41:22.609Z,12.00
2023-06-17T02:42:22.590Z,16.00
2023-06-17T02:43:22.623Z,16.00
2023-06-17T02:44:22.581Z,20.00
2023-06-17T02:45:22.590Z,20.00
2023-06-17T02:46:22.590Z,24.00
2023-06-17T02:47:22.541Z,28.00
2023-06-17T02:48:22.542Z,28.00
2023-06-17T02:49:22.519Z,32.00
2023-06-17T02:50:22.656Z,32.00
2023-06-17T02:51:22.488Z,32.00
2023-06-17T02:52:22.492Z,36.00
2023-06-17T02:53:22.492Z,40.00
2023-06-17T02:54:22.544Z,44.00
2023-06-17T02:55:22.465Z,44.00
2023-06-17T02:56:22.432Z,44.00
2023-06-17T02:57:22.472Z,48.00
2023-06-17T02:58:22.444Z,48.00
2023-06-17T02:59:22.439Z,48.00
2023-06-17T03:00:22.661Z,48.00
2023-06-17T03:01:22.496Z,52.00
2023-06-17T03:02:22.477Z,52.00
2023-06-17T03:03:22.425Z,56.00
2023-06-17T03:04:22.356Z,60.00
2023-06-17T03:05:22.366Z,68.00
2023-06-17T03:06:22.322Z,72.00
2023-06-17T03:07:22.345Z,76.00
2023-06-17T03:08:22.313Z,88.00
2023-06-17T03:09:22.302Z,92.00
2023-06-17T03:10:22.529Z,96.00
2023-06-17T03:11:22.267Z,96.00
2023-06-17T03:12:22.289Z,100.00
2023-06-17T03:13:22.264Z,100.00
2023-06-17T03:14:22.236Z,112.00
2023-06-17T03:15:22.249Z,120.00
2023-06-17T03:16:22.317Z,128.00
2023-06-17T03:17:22.228Z,128.00
2023-06-17T03:18:22.210Z,128.00
2023-06-17T03:19:22.170Z,132.00
2023-06-17T03:20:22.486Z,132.00
2023-06-17T03:21:22.160Z,132.00
2023-06-17T03:22:22.156Z,136.00
2023-06-17T03:23:22.166Z,136.00
2023-06-17T03:24:22.154Z,136.00
2023-06-17T03:25:22.123Z,132.00
2023-06-17T03:26:22.113Z,136.00
2023-06-17T03:27:22.125Z,144.00
2023-06-17T03:28:22.095Z,156.00
2023-06-17T03:29:22.129Z,168.00
2023-06-17T03:30:22.274Z,180.00
2023-06-17T03:31:22.106Z,196.00
2023-06-17T03:32:22.093Z,216.00
2023-06-17T03:33:22.032Z,232.00
2023-06-17T03:34:22.014Z,244.00
2023-06-17T03:35:22.009Z,248.00
2023-06-17T03:36:21.981Z,256.00
2023-06-17T03:37:22.031Z,268.00
2023-06-17T03:38:21.996Z,292.00
2023-06-17T03:39:21.956Z,316.00
2023-06-17T03:40:22.277Z,340.00
2023-06-17T03:41:21.989Z,348.00
2023-06-17T03:42:21.934Z,340.00
2023-06-17T03:43:21.934Z,340.00
2023-06-17T03:44:21.905Z,356.00
2023-06-17T03:45:21.910Z,388.00
2023-06-17T03:46:21.892Z,424.00
2023-06-17T03:47:21.867Z,448.00
2023-06-17T03:48:21.876Z,452.00
2023-06-17T03:49:21.861Z,452.00
2023-06-17T03:50:22.090Z,460.00
2023-06-17T03:51:21.840Z,472.00
2023-06-17T03:52:21.826Z,488.00
2023-06-17T03:53:21.815Z,492.00
2023-06-17T03:54:21.808Z,488.00
2023-06-17T03:55:21.835Z,484.00
2023-06-17T03:56:21.759Z,496.00
2023-06-17T03:57:21.775Z,536.00
2023-06-17T03:58:21.764Z,572.00
2023-06-17T03:59:21.742Z,580.00
2023-06-17T04:00:21.950Z,572.00
2023-06-17T04:01:21.709Z,552.00
2023-06-17T04:02:21.789Z,548.00
2023-06-17T04:03:21.778Z,576.00
2023-06-17T04:04:21.733Z,604.00
2023-06-17T04:05:21.682Z,600.00
2023-06-17T04:06:21.652Z,584.00
2023-06-17T04:07:21.654Z,592.00
2023-06-17T04:08:21.661Z,628.00
2023-06-17T04:09:21.625Z,680.00
2023-06-17T04:10:21.624Z,712.00
2023-06-17T04:11:21.601Z,724.00
2023-06-17T04:12:21.586Z,724.00
2023-06-17T04:13:21.604Z,736.00
2023-06-17T04:14:21.561Z,780.00
2023-06-17T04:15:21.579Z,824.00
2023-06-17T04:16:21.548Z,832.00
2023-06-17T04:17:21.529Z,828.00
2023-06-17T04:18:21.601Z,820.00
2023-06-17T04:19:21.515Z,824.00
2023-06-17T04:20:21.725Z,868.00
2023-06-17T04:21:21.534Z,928.00
2023-06-17T04:22:21.492Z,948.00
2023-06-17T04:23:21.468Z,948.00
2023-06-17T04:24:21.589Z,924.00
2023-06-17T04:25:21.435Z,916.00
2023-06-17T04:26:21.435Z,956.00
2023-06-17T04:27:21.426Z,944.00
2023-06-17T04:28:21.435Z,928.00
2023-06-17T04:29:21.402Z,928.00
2023-06-17T04:30:21.622Z,988.00
2023-06-17T04:31:21.382Z,1032.00
2023-06-17T04:32:21.373Z,1052.00
2023-06-17T04:33:21.384Z,1032.00
2023-06-17T04:34:21.338Z,972.00
2023-06-17T04:35:21.333Z,960.00
2023-06-17T04:36:21.314Z,992.00
2023-06-17T04:37:21.315Z,1020.00
2023-06-17T04:38:21.320Z,1040.00
2023-06-17T04:39:21.295Z,1028.00
2023-06-17T04:40:21.472Z,1056.00
2023-06-17T04:41:21.249Z,1072.00
2023-06-17T04:42:21.249Z,1068.00
2023-06-17T04:43:21.256Z,1036.00
2023-06-17T04:44:21.251Z,996.00
2023-06-17T04:45:21.222Z,984.00
2023-06-17T04:46:21.273Z,936.00
2023-06-17T04:47:21.266Z,924.00
2023-06-17T04:48:21.185Z,952.00
2023-06-17T04:49:21.193Z,972.00
2023-06-17T04:50:21.424Z,972.00
2023-06-17T04:51:21.144Z,976.00
2023-06-17T04:52:27.688Z,984.00
2023-06-17T04:53:21.125Z,1004.00
2023-06-17T04:54:21.126Z,1052.00
2023-06-17T04:55:21.112Z,1112.00
2023-06-17T04:56:21.205Z,1160.00
2023-06-17T04:57:21.081Z,1212.00
2023-06-17T04:58:21.083Z,1256.00
2023-06-17T04:59:21.083Z,1288.00
2023-06-17T05:00:22.492Z,1288.00
2023-06-17T05:01:21.072Z,1252.00
2023-06-17T05:02:21.053Z,1200.00
2023-06-17T05:03:21.047Z,1160.00
2023-06-17T05:04:21.017Z,1140.00
2023-06-17T05:05:20.996Z,1172.00
2023-06-17T05:06:20.989Z,1216.00
2023-06-17T05:07:20.960Z,1252.00
2023-06-17T05:08:20.954Z,1320.00
2023-06-17T05:09:20.965Z,1368.00
2023-06-17T05:10:21.249Z,1388.00
2023-06-17T05:11:20.926Z,1440.00
2023-06-17T05:12:20.929Z,1440.00
2023-06-17T05:13:20.903Z,1412.00
2023-06-17T05:14:20.902Z,1452.00
2023-06-17T05:15:20.875Z,1560.00
2023-06-17T05:16:20.883Z,1648.00
2023-06-17T05:17:20.895Z,1596.00
2023-06-17T05:18:20.843Z,1540.00
2023-06-17T05:19:20.850Z,1480.00
2023-06-17T05:20:21.061Z,1488.00
2023-06-17T05:21:20.811Z,1608.00
2023-06-17T05:22:20.809Z,1684.00
2023-06-17T05:23:20.784Z,1660.00
2023-06-17T05:24:20.804Z,1700.00
2023-06-17T05:25:20.775Z,1688.00
2023-06-17T05:26:20.758Z,1720.00
2023-06-17T05:27:20.743Z,1688.00
2023-06-17T05:28:20.749Z,1640.00
2023-06-17T05:29:20.717Z,1756.00
2023-06-17T05:30:20.929Z,1952.00
2023-06-17T05:31:20.756Z,2060.00
2023-06-17T05:32:20.685Z,2060.00
2023-06-17T05:33:20.677Z,2084.00
2023-06-17T05:34:20.674Z,2076.00
2023-06-17T05:35:20.660Z,2072.00
2023-06-17T05:36:20.664Z,2116.00
2023-06-17T05:37:20.626Z,2248.00
2023-06-17T05:38:20.620Z,2368.00
2023-06-17T05:39:20.606Z,2432.00
2023-06-17T05:40:20.905Z,2456.00
2023-06-17T05:41:20.588Z,2424.00
2023-06-17T05:42:20.597Z,2372.00
2023-06-17T05:43:20.568Z,2308.00
2023-06-17T05:44:20.561Z,2248.00
2023-06-17T05:45:20.548Z,2276.00
2023-06-17T05:46:20.627Z,2436.00
2023-06-17T05:47:20.536Z,2564.00
2023-06-17T05:48:20.513Z,2528.00
2023-06-17T05:49:20.500Z,2472.00
2023-06-17T05:50:20.861Z,2564.00
2023-06-17T05:51:20.477Z,2616.00
2023-06-17T05:52:20.481Z,2400.00
2023-06-17T05:53:20.480Z,2184.00
2023-06-17T05:54:20.456Z,2092.00
2023-06-17T05:55:20.436Z,2108.00
2023-06-17T05:56:20.425Z,2204.00
2023-06-17T05:57:20.413Z,2208.00
2023-06-17T05:58:20.411Z,2192.00
2023-06-17T05:59:20.411Z,2196.00
2023-06-17T06:00:20.735Z,2192.00
2023-06-17T06:01:20.445Z,2264.00
2023-06-17T06:02:20.366Z,2332.00
2023-06-17T06:03:20.373Z,2328.00
2023-06-17T06:04:20.367Z,2224.00
2023-06-17T06:05:20.362Z,2208.00
2023-06-17T06:06:20.331Z,2232.00
2023-06-17T06:07:20.308Z,2192.00
2023-06-17T06:08:20.296Z,2104.00
2023-06-17T06:09:20.285Z,2076.00
2023-06-17T06:10:20.597Z,2148.00
2023-06-17T06:11:20.255Z,2292.00
2023-06-17T06:12:20.257Z,2280.00
2023-06-17T06:13:20.239Z,2176.00
2023-06-17T06:14:20.235Z,2188.00
2023-06-17T06:15:20.240Z,2296.00
2023-06-17T06:16:20.260Z,2344.00
2023-06-17T06:17:20.199Z,2328.00
2023-06-17T06:18:20.195Z,2352.00
2023-06-17T06:19:20.164Z,2540.00
2023-06-17T06:20:20.479Z,2848.00
2023-06-17T06:21:20.170Z,3088.00
2023-06-17T06:22:20.159Z,3120.00
2023-06-17T06:23:20.130Z,2964.00
2023-06-17T06:24:20.152Z,2724.00
2023-06-17T06:25:20.131Z,2600.00
2023-06-17T06:26:20.098Z,2584.00
2023-06-17T06:27:20.094Z,2600.00
2023-06-17T06:28:20.073Z,2564.00
2023-06-17T06:29:20.094Z,2496.00
2023-06-17T06:30:20.251Z,2484.00
2023-06-17T06:31:20.041Z,2608.00
2023-06-17T06:32:20.039Z,2836.00
2023-06-17T06:33:20.019Z,3036.00
2023-06-17T06:34:20.021Z,3032.00
2023-06-17T06:35:20.015Z,2904.00
2023-06-17T06:36:19.980Z,2812.00
2023-06-17T06:37:19.972Z,2872.00
2023-06-17T06:38:19.962Z,3040.00
2023-06-17T06:39:19.966Z,3120.00
2023-06-17T06:40:20.276Z,2972.00
2023-06-17T06:41:19.926Z,2800.00
2023-06-17T06:42:19.930Z,2720.00
2023-06-17T06:43:19.912Z,2808.00
2023-06-17T06:44:19.895Z,3092.00
2023-06-17T06:45:19.911Z,3352.00
2023-06-17T06:46:19.898Z,3196.00
2023-06-17T06:47:19.881Z,3124.00
2023-06-17T06:48:19.847Z,3064.00
2023-06-17T06:49:19.840Z,3284.00
2023-06-17T06:50:20.033Z,3028.00
2023-06-17T06:51:19.816Z,2976.00
2023-06-17T06:52:19.816Z,3472.00
2023-06-17T06:53:19.793Z,4008.00
2023-06-17T06:54:19.785Z,4204.00
2023-06-17T06:55:19.796Z,3504.00
2023-06-17T06:56:19.763Z,3136.00
2023-06-17T06:57:19.757Z,2872.00
2023-06-17T06:58:19.747Z,2988.00
2023-06-17T06:59:19.738Z,3068.00
2023-06-17T07:00:20.095Z,2896.00
2023-06-17T07:01:19.800Z,2128.00
2023-06-17T07:02:19.714Z,1724.00
2023-06-17T07:03:19.685Z,2048.00
2023-06-17T07:04:19.693Z,2248.00
2023-06-17T07:05:19.681Z,2404.00
2023-06-17T07:06:19.660Z,2852.00
2023-06-17T07:07:19.644Z,3116.00
2023-06-17T07:08:19.643Z,3288.00
2023-06-17T07:09:19.615Z,3372.00
2023-06-17T07:10:19.755Z,3224.00
2023-06-17T07:11:19.590Z,3256.00
2023-06-17T07:12:19.584Z,3248.00
2023-06-17T07:13:19.571Z,3336.00
2023-06-17T07:14:19.569Z,3428.00
2023-06-17T07:15:19.570Z,3728.00
2023-06-17T07:16:19.606Z,3888.00
2023-06-17T07:17:19.546Z,3424.00
2023-06-17T07:18:19.515Z,3120.00
2023-06-17T07:19:19.511Z,2852.00
2023-06-17T07:20:19.966Z,2844.00
2023-06-17T07:21:19.495Z,2844.00
2023-06-17T07:22:19.470Z,2976.00
2023-06-17T07:23:19.464Z,3212.00
2023-06-17T07:24:19.487Z,3580.00
2023-06-17T07:25:19.436Z,3428.00
2023-06-17T07:26:19.437Z,3604.00
2023-06-17T07:27:19.417Z,3648.00
2023-06-17T07:28:19.408Z,3392.00
2023-06-17T07:29:19.389Z,3116.00
2023-06-17T07:30:19.681Z,3068.00
2023-06-17T07:31:19.461Z,3156.00
2023-06-17T07:32:19.400Z,3260.00
2023-06-17T07:33:19.410Z,3320.00
2023-06-17T07:34:19.330Z,3476.00
2023-06-17T07:35:19.334Z,3492.00
2023-06-17T07:36:19.311Z,3404.00
2023-06-17T07:37:19.324Z,3280.00
2023-06-17T07:38:19.311Z,3156.00
2023-06-17T07:39:19.292Z,2928.00
2023-06-17T07:40:19.555Z,3104.00
2023-06-17T07:41:19.260Z,3176.00
2023-06-17T07:42:19.263Z,3108.00
2023-06-17T07:43:19.238Z,3188.00
2023-06-17T07:44:19.224Z,3472.00
2023-06-17T07:45:19.222Z,3704.00
2023-06-17T07:46:19.239Z,3852.00
2023-06-17T07:47:19.218Z,3868.00
2023-06-17T07:48:19.314Z,4240.00
2023-06-17T07:49:19.184Z,4604.00
2023-06-17T07:50:19.485Z,4920.00
2023-06-17T07:51:19.149Z,5428.00
2023-06-17T07:52:19.166Z,5968.00
2023-06-17T07:53:19.131Z,6008.00
2023-06-17T07:54:19.114Z,6088.00
2023-06-17T07:55:19.125Z,6104.00
2023-06-17T07:56:19.095Z,6012.00
2023-06-17T07:57:19.094Z,6316.00
2023-06-17T07:58:19.080Z,6804.00
2023-06-17T07:59:19.076Z,6760.00
2023-06-17T08:00:19.567Z,6656.00
2023-06-17T08:01:19.095Z,6664.00
2023-06-17T08:02:19.103Z,6584.00
2023-06-17T08:03:19.091Z,6472.00
2023-06-17T08:04:19.033Z,6520.00
2023-06-17T08:05:18.997Z,6588.00
2023-06-17T08:06:18.986Z,7480.00
2023-06-17T08:07:18.987Z,7000.00
2023-06-17T08:08:18.957Z,7692.00
2023-06-17T08:09:18.952Z,7548.00
2023-06-17T08:10:19.118Z,7176.00
2023-06-17T08:11:18.926Z,6912.00
2023-06-17T08:12:18.939Z,6668.00
2023-06-17T08:13:18.917Z,6380.00
2023-06-17T08:14:18.905Z,6272.00
2023-06-17T08:15:18.888Z,7864.00
2023-06-17T08:16:18.918Z,6984.00
2023-06-17T08:17:18.874Z,7136.00
2023-06-17T08:18:18.848Z,7508.00
2023-06-17T08:19:18.841Z,7600.00
2023-06-17T08:20:19.180Z,7424.00
2023-06-17T08:21:18.821Z,7432.00
2023-06-17T08:22:18.827Z,7936.00
2023-06-17T08:23:18.812Z,7996.00
2023-06-17T08:24:18.781Z,8404.00
2023-06-17T08:25:18.773Z,8212.00
2023-06-17T08:26:18.758Z,7256.00
2023-06-17T08:27:18.775Z,7336.00
2023-06-17T08:28:18.745Z,8744.00
2023-06-17T08:29:18.736Z,6696.00
2023-06-17T08:30:19.379Z,6464.00
2023-06-17T08:31:18.712Z,6448.00
2023-06-17T08:32:18.723Z,6400.00
2023-06-17T08:33:18.685Z,5964.00
2023-06-17T08:34:18.676Z,5564.00
2023-06-17T08:35:18.664Z,5440.00
2023-06-17T08:36:18.653Z,5272.00
2023-06-17T08:37:18.656Z,5356.00
2023-06-17T08:38:18.638Z,5520.00
2023-06-17T08:39:18.619Z,6000.00
2023-06-17T08:40:18.988Z,6060.00
2023-06-17T08:41:18.602Z,6824.00
2023-06-17T08:42:18.601Z,7596.00
2023-06-17T08:43:18.577Z,7772.00
2023-06-17T08:44:18.568Z,7736.00
2023-06-17T08:45:18.547Z,8160.00
2023-06-17T08:46:18.554Z,9856.00
2023-06-17T08:47:18.608Z,9876.00
2023-06-17T08:48:18.517Z,9216.00
2023-06-17T08:49:18.526Z,8988.00
2023-06-17T08:50:18.621Z,8828.00
2023-06-17T08:51:18.596Z,8580.00
2023-06-17T08:52:18.492Z,7956.00
2023-06-17T08:53:18.504Z,7904.00
2023-06-17T08:54:18.458Z,5860.00
2023-06-17T08:55:18.496Z,5564.00
2023-06-17T08:56:18.438Z,5268.00
2023-06-17T08:57:19.442Z,5176.00
2023-06-17T08:58:18.430Z,5220.00
2023-06-17T08:59:18.592Z,5080.00
2023-06-17T09:00:18.787Z,4904.00
2023-06-17T09:01:18.438Z,4576.00
2023-06-17T09:02:18.402Z,4788.00
2023-06-17T09:03:18.355Z,7000.00
2023-06-17T09:04:18.355Z,8236.00
2023-06-17T09:05:18.418Z,8976.00
2023-06-17T09:06:18.325Z,8736.00
2023-06-17T09:07:18.366Z,8576.00
2023-06-17T09:08:18.306Z,7912.00
2023-06-17T09:09:18.289Z,8436.00
2023-06-17T09:10:18.416Z,8004.00
2023-06-17T09:11:18.276Z,7796.00
2023-06-17T09:12:18.268Z,9316.00
2023-06-17T09:13:18.278Z,8992.00
2023-06-17T09:14:18.316Z,8672.00
2023-06-17T09:15:18.234Z,7520.00
2023-06-17T09:16:18.243Z,6508.00
2023-06-17T09:17:18.279Z,7592.00
2023-06-17T09:18:18.289Z,4972.00
2023-06-17T09:19:18.180Z,4560.00
2023-06-17T09:20:18.578Z,4512.00
2023-06-17T09:21:18.178Z,4520.00
2023-06-17T09:22:18.161Z,4744.00
2023-06-17T09:23:18.148Z,4940.00
2023-06-17T09:24:18.189Z,5164.00
2023-06-17T09:25:18.122Z,5488.00
2023-06-17T09:26:18.101Z,6196.00
2023-06-17T09:27:18.090Z,6148.00
2023-06-17T09:28:18.091Z,7460.00
2023-06-17T09:29:18.093Z,9104.00
2023-06-17T09:30:18.129Z,9428.00
2023-06-17T09:31:18.046Z,8200.00
2023-06-17T09:32:18.033Z,9436.00
2023-06-17T09:33:18.041Z,9584.00
2023-06-17T09:34:18.058Z,9532.00
2023-06-17T09:35:18.006Z,9684.00
2023-06-17T09:36:17.986Z,9368.00
2023-06-17T09:37:17.981Z,8800.00
2023-06-17T09:38:17.970Z,8376.00
2023-06-17T09:39:17.980Z,8252.00
2023-06-17T09:40:18.225Z,7656.00
2023-06-17T09:41:17.950Z,5240.00
2023-06-17T09:42:17.931Z,5148.00
2023-06-17T09:44:16.900Z,5672.00
2023-06-17T09:45:17.923Z,5912.00
2023-06-17T09:46:17.932Z,6084.00
2023-06-17T09:47:17.879Z,6172.00
2023-06-17T09:48:17.891Z,6988.00
2023-06-17T09:49:17.871Z,8324.00
2023-06-17T09:50:17.882Z,8192.00
2023-06-17T09:51:17.853Z,8164.00
2023-06-17T09:52:17.831Z,8276.00
2023-06-17T09:53:17.812Z,8196.00
2023-06-17T09:54:17.795Z,7692.00
2023-06-17T09:55:17.811Z,5516.00
2023-06-17T09:56:17.786Z,5320.00
2023-06-17T09:57:17.797Z,5636.00
2023-06-17T09:58:17.767Z,5824.00
2023-06-17T09:59:17.770Z,7872.00
2023-06-17T10:00:17.913Z,7216.00
2023-06-17T10:01:17.728Z,5084.00
2023-06-17T10:02:17.746Z,4420.00
2023-06-17T10:03:17.804Z,4704.00
2023-06-17T10:04:17.762Z,4728.00
2023-06-17T10:05:17.690Z,4552.00
2023-06-17T10:06:17.677Z,4468.00
2023-06-17T10:07:17.680Z,4404.00
2023-06-17T10:08:17.660Z,4340.00
2023-06-17T10:09:17.632Z,4332.00
2023-06-17T10:10:17.695Z,4820.00
2023-06-17T10:11:17.612Z,6568.00
2023-06-17T10:12:17.605Z,6336.00
2023-06-17T10:13:17.608Z,3984.00
2023-06-17T10:14:17.581Z,4248.00
2023-06-17T10:15:17.591Z,4324.00
2023-06-17T10:16:17.560Z,4652.00
2023-06-17T10:17:17.552Z,4416.00
2023-06-17T10:18:17.543Z,5104.00
2023-06-17T10:19:17.570Z,6712.00
2023-06-17T10:20:17.518Z,7180.00
2023-06-17T10:21:17.572Z,7132.00
2023-06-17T10:22:17.503Z,6732.00
2023-06-17T10:23:17.487Z,6760.00
2023-06-17T10:24:17.508Z,7728.00
2023-06-17T10:25:17.479Z,7776.00
2023-06-17T10:26:17.453Z,7220.00
2023-06-17T10:27:17.446Z,7324.00
2023-06-17T10:28:17.433Z,6988.00
2023-06-17T10:29:17.421Z,7192.00
2023-06-17T10:30:17.437Z,7332.00
2023-06-17T10:31:17.390Z,7404.00
2023-06-17T10:32:17.386Z,7768.00
2023-06-17T10:33:17.437Z,7776.00
2023-06-17T10:34:17.366Z,7408.00
2023-06-17T10:35:17.370Z,7416.00
2023-06-17T10:36:17.337Z,7388.00
2023-06-17T10:37:17.338Z,7436.00
2023-06-17T10:38:17.321Z,4440.00
2023-06-17T10:39:17.305Z,6988.00
2023-06-17T10:40:17.311Z,7304.00
2023-06-17T10:41:17.279Z,7092.00
2023-06-17T10:42:17.287Z,6672.00
2023-06-17T10:43:17.272Z,7244.00
2023-06-17T10:44:17.250Z,6836.00
2023-06-17T10:45:17.236Z,7156.00
2023-06-17T10:46:17.284Z,7028.00
2023-06-17T10:47:17.224Z,6984.00
2023-06-17T10:48:17.210Z,4640.00
2023-06-17T10:49:17.198Z,7072.00
2023-06-17T10:50:17.200Z,7044.00
2023-06-17T10:51:17.172Z,7548.00
2023-06-17T10:53:18.449Z,7056.00
2023-06-17T10:54:19.441Z,6816.00
2023-06-17T10:55:19.419Z,6772.00
2023-06-17T10:56:19.407Z,6492.00
2023-06-17T10:57:19.413Z,6452.00
2023-06-17T10:58:19.387Z,6540.00
2023-06-17T10:59:19.378Z,6364.00
2023-06-17T11:00:19.641Z,6244.00
2023-06-17T11:01:19.355Z,5092.00
2023-06-17T11:02:19.372Z,4064.00
2023-06-17T11:03:19.513Z,6076.00
2023-06-17T11:04:19.329Z,6100.00
2023-06-17T11:05:19.322Z,6484.00
2023-06-17T11:06:19.318Z,5736.00
2023-06-17T11:07:19.315Z,6964.00
2023-06-17T11:08:19.284Z,6952.00
2023-06-17T11:09:19.296Z,6940.00
2023-06-17T11:10:19.315Z,7012.00
2023-06-17T11:11:19.256Z,7048.00
2023-06-17T11:12:19.248Z,7064.00
2023-06-17T11:13:19.241Z,7080.00
2023-06-17T11:14:19.219Z,7028.00
2023-06-17T11:15:19.234Z,7076.00
2023-06-17T11:16:19.219Z,7024.00
2023-06-17T11:17:19.224Z,6952.00
2023-06-17T11:18:19.189Z,7044.00
2023-06-17T11:19:19.175Z,7188.00
2023-06-17T11:20:19.373Z,7496.00
2023-06-17T11:21:19.177Z,7660.00
2023-06-17T11:22:19.142Z,7648.00
2023-06-17T11:23:19.126Z,7660.00
2023-06-17T11:24:19.153Z,7664.00
2023-06-17T11:25:19.648Z,7400.00
2023-06-17T11:26:19.100Z,7312.00
2023-06-17T11:27:19.077Z,7220.00
2023-06-17T11:28:19.090Z,7100.00
2023-06-17T11:29:19.084Z,7132.00
2023-06-17T11:30:19.396Z,7132.00
2023-06-17T11:31:19.059Z,7320.00
2023-06-17T11:32:19.032Z,7424.00
2023-06-17T11:33:19.012Z,7756.00
2023-06-17T11:34:19.009Z,5668.00
2023-06-17T11:35:19.007Z,8104.00
2023-06-17T11:36:19.007Z,5392.00
2023-06-17T11:37:18.972Z,6868.00
2023-06-17T11:38:18.971Z,5684.00
2023-06-17T11:39:18.959Z,6336.00
2023-06-17T11:40:19.151Z,7284.00
2023-06-17T11:41:18.961Z,8000.00
2023-06-17T11:42:18.955Z,7644.00
2023-06-17T11:43:18.903Z,6576.00
2023-06-17T11:44:18.917Z,4428.00
2023-06-17T11:45:18.894Z,4332.00
2023-06-17T11:46:18.913Z,4232.00
2023-06-17T11:47:18.900Z,4080.00
2023-06-17T11:48:18.874Z,3952.00
2023-06-17T11:49:18.839Z,3964.00
2023-06-17T11:50:19.198Z,3992.00
2023-06-17T11:51:20.774Z,3984.00
2023-06-17T11:52:18.815Z,3968.00
2023-06-17T11:53:18.823Z,4156.00
2023-06-17T11:54:18.797Z,7124.00
2023-06-17T11:55:18.797Z,7516.00
2023-06-17T11:56:18.769Z,7784.00
2023-06-17T11:57:18.771Z,7996.00
2023-06-17T11:58:18.750Z,8132.00
2023-06-17T11:59:18.753Z,8292.00
2023-06-17T12:00:18.913Z,8512.00
2023-06-17T12:01:18.715Z,8840.00
2023-06-17T12:02:18.824Z,9144.00
2023-06-17T12:03:18.732Z,9172.00
2023-06-17T12:04:18.757Z,9360.00
2023-06-17T12:05:18.691Z,8940.00
2023-06-17T12:06:18.661Z,8708.00
2023-06-17T12:07:18.646Z,6736.00
2023-06-17T12:08:18.661Z,6600.00
2023-06-17T12:09:18.627Z,8312.00
2023-06-17T12:10:19.028Z,8200.00
2023-06-17T12:11:18.631Z,7936.00
2023-06-17T12:12:18.597Z,6964.00
2023-06-17T12:13:18.590Z,7928.00
2023-06-17T12:14:18.583Z,7804.00
2023-06-17T12:15:18.593Z,6316.00
2023-06-17T12:16:19.174Z,7904.00
2023-06-17T12:17:18.549Z,7664.00
2023-06-17T12:18:18.533Z,7668.00
2023-06-17T12:19:18.531Z,7644.00
2023-06-17T12:20:18.572Z,7568.00
2023-06-17T12:21:18.504Z,7480.00
2023-06-17T12:22:18.499Z,7384.00
2023-06-17T12:23:18.487Z,7308.00
2023-06-17T12:24:18.489Z,7356.00
2023-06-17T12:25:18.474Z,7424.00
2023-06-17T12:26:18.470Z,7516.00